createdAt,value
2019-03-31T00:02:26.542Z,28.87
2019-03-31T00:04:55.535Z,25.50
2019-03-31T00:07:24.470Z,27.17
2019-03-31T00:09:53.486Z,26.57
2019-03-31T00:12:30.489Z,22.87
2019-03-31T00:14:58.358Z,25.85
2019-03-31T00:17:26.243Z,23.87
2019-03-31T00:19:54.618Z,26.55
2019-03-31T00:22:22.614Z,24.40
2019-03-31T00:24:55.159Z,21.93
2019-03-31T00:27:23.438Z,25.17
2019-03-31T00:29:52.389Z,21.35
2019-03-31T00:32:21.143Z,19.48
2019-03-31T00:34:49.977Z,25.35
2019-03-31T00:37:19.207Z,23.52
2019-03-31T00:39:47.174Z,22.80
2019-03-31T00:42:16.690Z,25.60
2019-03-31T00:44:44.660Z,25.52
2019-03-31T00:47:13.262Z,23.90
2019-03-31T00:49:43.568Z,21.17
2019-03-31T00:52:12.862Z,21.55
2019-03-31T00:54:42.067Z,25.70
2019-03-31T00:57:10.974Z,26.65
2019-03-31T00:59:44.026Z,23.25
2019-03-31T01:02:17.237Z,21.70
2019-03-31T01:04:45.754Z,25.02
2019-03-31T01:07:15.510Z,24.57
2019-03-31T01:09:46.468Z,24.02
2019-03-31T01:12:15.972Z,23.80
2019-03-31T01:14:44.837Z,26.62
2019-03-31T01:17:14.098Z,24.57
2019-03-31T01:19:43.480Z,22.90
2019-03-31T01:22:12.219Z,25.72
2019-03-31T01:24:41.359Z,24.87
2019-03-31T01:27:12.239Z,24.25
2019-03-31T01:29:40.470Z,22.73
2019-03-31T01:32:13.386Z,23.47
2019-03-31T01:34:42.161Z,23.85
2019-03-31T01:37:12.154Z,25.23
2019-03-31T01:39:41.455Z,23.95
2019-03-31T01:42:11.090Z,25.68
2019-03-31T01:44:39.907Z,23.22
2019-03-31T01:47:09.463Z,25.20
2019-03-31T01:49:38.666Z,26.95
2019-03-31T01:52:07.448Z,26.97
2019-03-31T01:54:36.730Z,24.20
2019-03-31T01:57:08.285Z,21.95
2019-03-31T01:59:36.270Z,24.47
2019-03-31T02:02:05.112Z,26.77
2019-03-31T02:04:34.039Z,23.85
2019-03-31T02:07:09.712Z,24.02
2019-03-31T02:09:38.920Z,24.45
2019-03-31T02:12:07.869Z,23.20
2019-03-31T02:14:37.203Z,23.70
2019-03-31T02:17:05.479Z,27.77
2019-03-31T02:19:35.090Z,22.73
2019-03-31T02:22:04.094Z,27.67
2019-03-31T02:24:33.272Z,25.30
2019-03-31T02:27:02.162Z,27.62
2019-03-31T02:29:37.243Z,26.23
2019-03-31T02:32:22.721Z,24.67
2019-03-31T02:34:35.802Z,26.07
2019-03-31T02:37:03.677Z,32.20
2019-03-31T02:39:32.320Z,27.62
2019-03-31T02:42:07.092Z,34.00
2019-03-31T02:44:35.247Z,27.60
2019-03-31T02:47:02.920Z,29.85
2019-03-31T02:49:30.519Z,29.98
2019-03-31T02:51:58.245Z,31.55
2019-03-31T02:54:29.895Z,34.23
2019-03-31T02:56:57.923Z,33.15
2019-03-31T02:59:26.800Z,33.60
2019-03-31T03:01:56.342Z,34.23
2019-03-31T03:04:33.270Z,38.28
2019-03-31T03:07:02.691Z,35.30
2019-03-31T03:09:31.953Z,35.15
2019-03-31T03:12:02.296Z,37.83
2019-03-31T03:14:35.855Z,36.73
2019-03-31T03:17:04.460Z,34.08
2019-03-31T03:19:32.964Z,36.90
2019-03-31T03:22:01.024Z,35.75
2019-03-31T03:24:29.200Z,39.90
2019-03-31T03:27:00.952Z,36.58
2019-03-31T03:29:29.112Z,39.67
2019-03-31T03:31:57.214Z,36.48
2019-03-31T03:34:25.362Z,38.83
2019-03-31T03:36:54.322Z,48.50
2019-03-31T03:39:28.859Z,41.65
2019-03-31T03:41:57.171Z,43.85
2019-03-31T03:44:25.123Z,46.23
2019-03-31T03:46:53.886Z,44.03
2019-03-31T03:49:27.397Z,47.93
2019-03-31T03:51:56.409Z,45.45
2019-03-31T03:54:25.611Z,47.10
2019-03-31T03:56:53.516Z,50.78
2019-03-31T03:59:22.724Z,45.50
2019-03-31T04:01:51.705Z,53.98
2019-03-31T04:04:20.527Z,48.92
2019-03-31T04:06:49.412Z,48.15
2019-03-31T04:09:18.846Z,50.75
2019-03-31T04:11:48.469Z,49.13
2019-03-31T04:14:20.228Z,54.70
2019-03-31T04:16:48.591Z,48.73
2019-03-31T04:19:16.975Z,58.30
2019-03-31T04:21:46.073Z,57.65
2019-03-31T04:24:15.168Z,48.30
2019-03-31T04:26:44.375Z,54.90
2019-03-31T04:29:13.660Z,59.88
2019-03-31T04:31:41.546Z,50.55
2019-03-31T04:34:11.466Z,53.42
2019-03-31T04:36:40.419Z,55.45
2019-03-31T04:39:12.371Z,53.38
2019-03-31T04:41:40.587Z,52.33
2019-03-31T04:44:08.303Z,62.93
2019-03-31T04:46:37.498Z,51.85
2019-03-31T04:49:05.166Z,55.55
2019-03-31T04:51:38.103Z,56.02
2019-03-31T04:54:06.722Z,56.50
2019-03-31T04:56:35.806Z,58.87
2019-03-31T04:59:04.481Z,59.20
2019-03-31T05:01:33.458Z,63.08
2019-03-31T05:04:05.946Z,59.42
2019-03-31T05:06:34.619Z,63.80
2019-03-31T05:09:04.972Z,68.60
2019-03-31T05:11:33.617Z,61.37
2019-03-31T05:14:02.357Z,72.80
2019-03-31T05:16:31.902Z,63.78
2019-03-31T05:19:00.812Z,60.30
2019-03-31T05:21:29.905Z,69.27
2019-03-31T05:23:57.527Z,66.55
2019-03-31T05:26:26.167Z,67.60
2019-03-31T05:28:57.532Z,74.65
2019-03-31T05:31:26.289Z,73.67
2019-03-31T05:33:55.357Z,68.25
2019-03-31T05:36:24.176Z,69.45
2019-03-31T05:38:53.005Z,73.47
2019-03-31T05:41:22.800Z,75.30
2019-03-31T05:44:04.844Z,72.12
2019-03-31T05:46:22.050Z,77.85
2019-03-31T05:48:50.939Z,81.25
2019-03-31T05:51:28.579Z,68.10
2019-03-31T05:53:56.202Z,74.90
2019-03-31T05:56:24.819Z,76.60
2019-03-31T05:58:52.434Z,73.33
2019-03-31T06:01:20.655Z,68.50
2019-03-31T06:03:50.762Z,75.35
2019-03-31T06:06:19.414Z,70.30
2019-03-31T06:08:48.666Z,82.17
2019-03-31T06:11:17.964Z,78.78
2019-03-31T06:13:51.491Z,76.35
2019-03-31T06:16:20.073Z,67.42
2019-03-31T06:18:47.846Z,67.32
2019-03-31T06:21:16.633Z,78.33
2019-03-31T06:23:44.500Z,68.70
2019-03-31T06:26:20.385Z,76.65
2019-03-31T06:28:48.709Z,70.40
2019-03-31T06:31:17.199Z,60.70
2019-03-31T06:33:46.539Z,69.67
2019-03-31T06:36:14.461Z,62.48
2019-03-31T06:38:45.268Z,68.65
2019-03-31T06:41:14.482Z,63.70
2019-03-31T06:43:43.694Z,58.87
2019-03-31T06:46:11.986Z,63.30
2019-03-31T06:48:41.637Z,59.33
2019-03-31T06:51:12.607Z,56.73
2019-03-31T06:53:41.210Z,58.33
2019-03-31T06:56:10.386Z,60.80
2019-03-31T06:58:39.899Z,61.68
2019-03-31T07:01:09.318Z,61.77
2019-03-31T07:03:39.418Z,59.40
2019-03-31T07:06:08.481Z,61.83
2019-03-31T07:08:37.265Z,54.33
2019-03-31T07:11:07.798Z,53.55
2019-03-31T07:13:35.689Z,51.48
2019-03-31T07:16:08.375Z,55.10
2019-03-31T07:18:37.249Z,49.25
2019-03-31T07:21:06.579Z,52.90
2019-03-31T07:23:34.955Z,52.88
2019-03-31T07:26:03.954Z,53.98
2019-03-31T07:28:35.307Z,49.77
2019-03-31T07:31:04.039Z,52.78
2019-03-31T07:33:32.645Z,50.30
2019-03-31T07:36:01.336Z,52.67
2019-03-31T07:38:38.873Z,53.20
2019-03-31T07:41:12.568Z,50.50
2019-03-31T07:43:33.167Z,49.88
2019-03-31T07:46:01.835Z,53.10
2019-03-31T07:48:30.478Z,87.57
2019-03-31T07:51:02.653Z,47.48
2019-03-31T07:53:30.910Z,55.12
2019-03-31T07:55:59.833Z,51.25
2019-03-31T07:58:27.951Z,55.50
2019-03-31T08:01:01.818Z,51.08
2019-03-31T08:03:30.522Z,54.60
2019-03-31T08:05:58.366Z,49.88
2019-03-31T08:08:26.306Z,54.95
2019-03-31T08:10:54.442Z,50.83
2019-03-31T08:13:28.031Z,49.65
2019-03-31T08:15:56.269Z,54.00
2019-03-31T08:18:24.815Z,49.80
2019-03-31T08:20:52.796Z,51.02
2019-03-31T08:23:22.331Z,45.28
2019-03-31T08:25:57.238Z,49.60
2019-03-31T08:28:25.170Z,44.53
2019-03-31T08:30:52.838Z,52.90
2019-03-31T08:33:22.443Z,42.23
2019-03-31T08:35:54.438Z,44.98
2019-03-31T08:38:24.502Z,44.27
2019-03-31T08:40:52.612Z,51.02
2019-03-31T08:43:20.890Z,39.98
2019-03-31T08:45:48.956Z,42.45
2019-03-31T08:48:16.916Z,44.23
2019-03-31T08:50:48.995Z,44.10
2019-03-31T08:53:16.815Z,46.45
2019-03-31T08:55:44.572Z,44.08
2019-03-31T08:58:13.276Z,35.38
2019-03-31T09:00:54.860Z,41.15
2019-03-31T09:03:22.821Z,39.75
2019-03-31T09:06:01.686Z,36.03
2019-03-31T09:08:22.299Z,36.50
2019-03-31T09:10:51.168Z,39.88
2019-03-31T09:13:20.374Z,31.07
2019-03-31T09:15:49.070Z,31.45
2019-03-31T09:18:17.890Z,30.90
2019-03-31T09:20:45.752Z,32.50
2019-03-31T09:23:14.271Z,40.03
2019-03-31T09:25:47.453Z,35.88
2019-03-31T09:28:15.183Z,34.03
2019-03-31T09:30:44.009Z,30.97
2019-03-31T09:33:12.644Z,29.80
2019-03-31T09:35:42.015Z,29.77
2019-03-31T09:38:13.602Z,32.23
2019-03-31T09:40:41.184Z,25.17
2019-03-31T09:43:10.428Z,26.82
2019-03-31T09:45:38.436Z,24.40
2019-03-31T09:48:07.605Z,25.65
2019-03-31T09:50:39.358Z,23.45
2019-03-31T09:53:07.426Z,22.52
2019-03-31T09:55:36.126Z,20.15
2019-03-31T09:58:05.139Z,27.07
2019-03-31T10:00:47.077Z,19.70
2019-03-31T10:03:16.010Z,21.35
2019-03-31T10:05:47.691Z,21.35
2019-03-31T10:08:15.846Z,17.55
2019-03-31T10:10:45.535Z,20.65
2019-03-31T10:13:14.743Z,20.10
2019-03-31T10:15:43.850Z,20.77
2019-03-31T10:18:12.739Z,17.75
2019-03-31T10:20:46.734Z,15.75
2019-03-31T10:23:16.954Z,19.20
2019-03-31T10:25:45.650Z,15.48
2019-03-31T10:28:14.026Z,16.73
2019-03-31T10:30:41.989Z,14.05
2019-03-31T10:33:15.731Z,16.10
2019-03-31T10:35:43.955Z,17.70
2019-03-31T10:38:11.519Z,14.05
2019-03-31T10:40:39.911Z,16.62
2019-03-31T10:43:08.069Z,16.77
2019-03-31T10:45:40.288Z,13.10
2019-03-31T10:48:19.677Z,15.95
2019-03-31T10:50:40.134Z,14.60
2019-03-31T10:53:08.129Z,13.62
2019-03-31T10:55:42.078Z,16.15
2019-03-31T10:58:10.955Z,12.88
2019-03-31T11:00:40.123Z,12.82
2019-03-31T11:03:09.260Z,15.32
2019-03-31T11:05:40.411Z,15.32
2019-03-31T11:08:10.598Z,12.37
2019-03-31T11:10:38.223Z,16.17
2019-03-31T11:13:06.087Z,15.20
2019-03-31T11:15:35.562Z,13.68
2019-03-31T11:18:08.747Z,13.60
2019-03-31T11:20:37.578Z,16.60
2019-03-31T11:23:17.405Z,13.18
2019-03-31T11:25:49.806Z,13.65
2019-03-31T11:28:18.116Z,11.43
2019-03-31T11:30:46.247Z,15.78
2019-03-31T11:33:14.797Z,14.40
2019-03-31T11:35:43.475Z,12.18
2019-03-31T11:38:16.809Z,15.63
2019-03-31T11:40:45.976Z,12.80
2019-03-31T11:43:13.835Z,13.80
2019-03-31T11:45:41.867Z,10.05
2019-03-31T11:48:09.583Z,17.07
2019-03-31T11:50:45.419Z,12.13
2019-03-31T11:53:13.495Z,15.05
2019-03-31T11:55:42.147Z,13.30
2019-03-31T11:58:10.208Z,11.10
2019-03-31T12:00:45.295Z,13.03
2019-03-31T12:03:13.291Z,11.68
2019-03-31T12:05:41.582Z,14.07
2019-03-31T12:08:10.020Z,13.30
2019-03-31T12:10:38.010Z,14.20
2019-03-31T12:13:17.256Z,14.38
2019-03-31T12:15:45.828Z,13.43
2019-03-31T12:18:14.470Z,18.60
2019-03-31T12:20:43.325Z,10.97
2019-03-31T12:23:12.064Z,11.93
2019-03-31T12:25:40.446Z,10.83
2019-03-31T12:28:09.279Z,12.78
2019-03-31T12:30:36.864Z,15.13
2019-03-31T12:33:04.582Z,11.80
2019-03-31T12:35:40.212Z,15.00
2019-03-31T12:38:07.999Z,11.40
2019-03-31T12:40:36.239Z,11.93
2019-03-31T12:43:05.119Z,12.95
2019-03-31T12:45:37.859Z,13.33
2019-03-31T12:48:05.726Z,11.65
2019-03-31T12:50:33.421Z,9.18
2019-03-31T12:53:01.247Z,12.88
2019-03-31T12:55:29.290Z,12.37
2019-03-31T12:57:57.127Z,12.57
2019-03-31T13:00:29.461Z,15.88
2019-03-31T13:02:57.494Z,12.17
2019-03-31T13:05:26.230Z,8.90
2019-03-31T13:07:56.549Z,10.78
2019-03-31T13:10:25.774Z,10.03
2019-03-31T13:12:59.361Z,11.12
2019-03-31T13:15:28.009Z,9.40
2019-03-31T13:17:56.363Z,12.47
2019-03-31T13:20:24.280Z,10.90
2019-03-31T13:22:52.723Z,9.43
2019-03-31T13:25:25.076Z,11.00
2019-03-31T13:27:54.193Z,8.87
2019-03-31T13:30:22.657Z,8.00
2019-03-31T13:32:50.687Z,8.93
2019-03-31T13:35:19.913Z,8.70
2019-03-31T13:37:53.343Z,8.50
2019-03-31T13:40:21.918Z,11.70
2019-03-31T13:42:50.406Z,12.53
2019-03-31T13:45:18.529Z,9.93
2019-03-31T13:47:46.887Z,9.43
2019-03-31T13:50:18.587Z,8.90
2019-03-31T13:52:50.273Z,9.38
2019-03-31T13:55:18.363Z,10.58
2019-03-31T13:57:47.564Z,7.53
2019-03-31T14:00:36.494Z,9.85
2019-03-31T14:03:04.585Z,10.37
2019-03-31T14:05:32.748Z,9.55
2019-03-31T14:08:05.422Z,9.50
2019-03-31T14:10:33.208Z,8.00
2019-03-31T14:13:01.963Z,9.43
2019-03-31T14:15:29.610Z,9.85
2019-03-31T14:17:58.470Z,7.37
2019-03-31T14:20:30.438Z,6.40
2019-03-31T14:22:58.877Z,8.50
2019-03-31T14:25:26.775Z,9.77
2019-03-31T14:27:55.867Z,7.80
2019-03-31T14:30:24.332Z,7.40
2019-03-31T14:32:56.353Z,7.00
2019-03-31T14:35:24.661Z,7.10
2019-03-31T14:37:52.675Z,8.00
2019-03-31T14:40:21.082Z,7.30
2019-03-31T14:42:52.829Z,8.27
2019-03-31T14:45:49.630Z,8.78
2019-03-31T14:48:22.114Z,6.80
2019-03-31T14:50:49.923Z,6.20
2019-03-31T14:53:18.028Z,4.97
2019-03-31T14:55:45.806Z,6.53
2019-03-31T14:58:18.638Z,5.80
2019-03-31T15:00:46.500Z,4.50
2019-03-31T15:03:17.856Z,10.60
2019-03-31T15:05:44.854Z,8.60
2019-03-31T15:08:13.136Z,7.60
2019-03-31T15:10:47.461Z,8.55
2019-03-31T15:13:15.939Z,7.57
2019-03-31T15:15:44.107Z,10.55
2019-03-31T15:18:12.070Z,6.03
2019-03-31T15:20:40.095Z,8.30
2019-03-31T15:23:12.452Z,5.03
2019-03-31T15:25:43.191Z,6.73
2019-03-31T15:28:11.367Z,5.97
2019-03-31T15:30:40.230Z,5.40
2019-03-31T15:33:14.419Z,8.20
2019-03-31T15:35:42.809Z,5.33
2019-03-31T15:38:10.824Z,8.35
2019-03-31T15:40:39.365Z,8.35
2019-03-31T15:43:07.857Z,5.53
2019-03-31T15:45:40.771Z,8.05
2019-03-31T15:48:09.307Z,7.47
2019-03-31T15:50:37.274Z,6.33
2019-03-31T15:53:05.281Z,8.87
2019-03-31T15:55:33.000Z,7.87
2019-03-31T15:58:06.461Z,9.10
2019-03-31T16:00:34.627Z,7.25
2019-03-31T16:03:02.763Z,6.97
2019-03-31T16:05:31.499Z,7.83
2019-03-31T16:08:00.525Z,6.45
2019-03-31T16:10:33.013Z,8.23
2019-03-31T16:13:00.991Z,6.80
2019-03-31T16:15:29.568Z,9.03
2019-03-31T16:17:58.866Z,7.15
2019-03-31T16:20:26.831Z,6.28
2019-03-31T16:22:58.195Z,8.43
2019-03-31T16:25:31.575Z,6.08
2019-03-31T16:28:00.071Z,9.10
2019-03-31T16:30:29.250Z,6.83
2019-03-31T16:33:02.463Z,12.50
2019-03-31T16:35:30.261Z,7.37
2019-03-31T16:37:59.100Z,9.08
2019-03-31T16:40:27.936Z,8.75
2019-03-31T16:42:56.452Z,7.90
2019-03-31T16:45:28.725Z,8.60
2019-03-31T16:47:56.436Z,10.05
2019-03-31T16:50:23.832Z,6.30
2019-03-31T16:52:52.758Z,7.78
2019-03-31T16:55:21.924Z,8.03
2019-03-31T16:57:54.591Z,7.65
2019-03-31T17:00:23.552Z,7.92
2019-03-31T17:02:50.890Z,6.87
2019-03-31T17:05:22.152Z,5.95
2019-03-31T17:07:50.146Z,9.95
2019-03-31T17:10:21.885Z,6.33
2019-03-31T17:12:50.707Z,10.75
2019-03-31T17:15:19.227Z,5.40
2019-03-31T17:17:47.328Z,8.70
2019-03-31T17:20:15.863Z,5.80
2019-03-31T17:22:48.303Z,5.92
2019-03-31T17:25:17.083Z,4.60
2019-03-31T17:27:46.655Z,8.13
2019-03-31T17:30:15.086Z,8.05
2019-03-31T17:32:43.130Z,8.93
2019-03-31T17:35:13.147Z,7.28
2019-03-31T17:37:41.723Z,9.93
2019-03-31T17:40:09.201Z,4.75
2019-03-31T17:42:36.798Z,5.60
2019-03-31T17:45:06.010Z,6.87
2019-03-31T17:47:41.491Z,4.87
2019-03-31T17:50:08.845Z,5.30
2019-03-31T17:52:36.174Z,5.25
2019-03-31T17:55:04.561Z,5.87
2019-03-31T17:57:31.998Z,5.35
2019-03-31T18:00:00.855Z,6.45
2019-03-31T18:02:29.483Z,7.50
2019-03-31T18:04:57.158Z,10.63
2019-03-31T18:07:25.725Z,5.58
2019-03-31T18:09:53.862Z,6.45
2019-03-31T18:12:22.028Z,6.60
2019-03-31T18:14:51.169Z,4.50
2019-03-31T18:17:19.255Z,6.87
2019-03-31T18:19:47.297Z,9.18
2019-03-31T18:22:16.575Z,9.40
2019-03-31T18:24:45.245Z,9.13
2019-03-31T18:27:16.426Z,9.80
2019-03-31T18:29:44.708Z,8.93
2019-03-31T18:32:14.627Z,6.72
2019-03-31T18:34:42.479Z,12.93
2019-03-31T18:37:09.630Z,10.88
2019-03-31T18:39:42.434Z,5.22
2019-03-31T18:42:10.132Z,10.55
2019-03-31T18:44:37.020Z,10.03
2019-03-31T18:47:04.823Z,8.80
2019-03-31T18:49:32.837Z,6.00
2019-03-31T18:52:05.333Z,6.00
2019-03-31T18:54:46.328Z,7.00
2019-03-31T18:57:29.471Z,7.35
2019-03-31T19:00:15.349Z,7.92
2019-03-31T19:03:03.059Z,6.85
2019-03-31T19:05:40.195Z,7.95
2019-03-31T19:08:35.986Z,12.73
2019-03-31T19:11:15.128Z,7.17
2019-03-31T19:14:08.377Z,6.97
2019-03-31T19:17:08.764Z,4.53
2019-03-31T19:19:53.732Z,7.33
2019-03-31T19:23:03.209Z,7.22
2019-03-31T19:25:51.508Z,6.67
2019-03-31T19:28:33.415Z,11.43
2019-03-31T19:31:07.672Z,6.45
2019-03-31T19:34:01.668Z,6.62
2019-03-31T19:36:46.328Z,13.78
2019-03-31T19:39:35.196Z,15.40
2019-03-31T19:42:09.129Z,11.25
2019-03-31T19:44:48.390Z,10.35
2019-03-31T19:47:31.859Z,7.25
2019-03-31T19:50:20.199Z,7.15
2019-03-31T19:52:56.014Z,9.73
2019-03-31T19:56:06.885Z,8.33
2019-03-31T19:59:09.693Z,11.43
2019-03-31T20:01:45.017Z,6.25
2019-03-31T20:04:38.964Z,10.63
2019-03-31T20:07:28.350Z,6.10
2019-03-31T20:10:07.128Z,6.72
2019-03-31T20:12:41.394Z,10.05
2019-03-31T20:15:31.782Z,10.08
2019-03-31T20:18:27.175Z,7.25
2019-03-31T20:21:08.663Z,6.05
2019-03-31T20:23:44.085Z,6.53
2019-03-31T20:26:43.933Z,7.75
2019-03-31T20:29:29.877Z,3.98
2019-03-31T20:32:24.257Z,6.60
2019-03-31T20:34:59.811Z,10.20
2019-03-31T20:37:48.512Z,7.15
2019-03-31T20:40:51.149Z,7.78
2019-03-31T20:43:41.489Z,8.45
2019-03-31T20:46:11.016Z,8.45
2019-03-31T20:48:39.492Z,4.40
2019-03-31T20:51:08.257Z,7.42
2019-03-31T20:53:37.162Z,7.40
2019-03-31T20:56:09.319Z,8.73
2019-03-31T20:58:36.569Z,8.20
2019-03-31T21:01:03.786Z,8.90
2019-03-31T21:03:32.094Z,6.25
2019-03-31T21:06:00.142Z,6.83
2019-03-31T21:08:32.243Z,6.97
2019-03-31T21:10:59.691Z,5.22
2019-03-31T21:13:28.410Z,10.65
2019-03-31T21:15:55.932Z,5.65
2019-03-31T21:18:24.611Z,4.40
2019-03-31T21:20:57.254Z,7.40
2019-03-31T21:23:24.996Z,8.03
2019-03-31T21:25:54.150Z,8.58
2019-03-31T21:28:21.811Z,9.98
2019-03-31T21:30:50.444Z,9.55
2019-03-31T21:33:21.174Z,6.67
2019-03-31T21:35:50.843Z,6.10
2019-03-31T21:38:19.843Z,7.97
2019-03-31T21:40:48.320Z,4.03
2019-03-31T21:43:15.574Z,6.95
2019-03-31T21:45:46.714Z,5.87
2019-03-31T21:48:16.031Z,7.33
2019-03-31T21:50:44.297Z,7.72
2019-03-31T21:53:11.444Z,4.95
2019-03-31T21:55:39.767Z,8.85
2019-03-31T21:58:11.771Z,6.22
2019-03-31T22:00:50.027Z,4.37
2019-03-31T22:03:18.313Z,5.97
2019-03-31T22:05:46.854Z,3.22
2019-03-31T22:08:17.756Z,8.00
2019-03-31T22:10:46.890Z,2.55
2019-03-31T22:13:15.248Z,6.33
2019-03-31T22:15:43.935Z,9.55
2019-03-31T22:18:14.243Z,7.30
2019-03-31T22:20:47.455Z,10.15
2019-03-31T22:23:15.751Z,6.42
2019-03-31T22:25:44.575Z,5.75
2019-03-31T22:28:13.435Z,6.92
2019-03-31T22:30:44.208Z,5.17
2019-03-31T22:33:12.351Z,5.15
2019-03-31T22:35:43.218Z,5.67
2019-03-31T22:38:10.829Z,7.87
2019-03-31T22:40:39.119Z,12.65
2019-03-31T22:43:09.447Z,5.95
2019-03-31T22:45:37.724Z,6.25
2019-03-31T22:48:05.107Z,10.90
2019-03-31T22:50:33.772Z,4.45
2019-03-31T22:53:02.148Z,5.25
2019-03-31T22:55:32.894Z,7.12
2019-03-31T22:58:00.967Z,3.55
2019-03-31T23:00:29.368Z,5.83
2019-03-31T23:02:57.710Z,5.65
2019-03-31T23:05:26.506Z,6.55
2019-03-31T23:07:56.413Z,9.63
2019-03-31T23:10:24.859Z,5.00
2019-03-31T23:12:53.591Z,8.30
2019-03-31T23:15:22.268Z,8.33
2019-03-31T23:17:50.952Z,5.30
2019-03-31T23:20:22.487Z,6.45
2019-03-31T23:22:50.938Z,4.08
2019-03-31T23:25:19.890Z,4.05
2019-03-31T23:27:48.028Z,4.80
2019-03-31T23:30:16.526Z,8.40
2019-03-31T23:32:48.064Z,9.90
2019-03-31T23:35:15.351Z,8.33
2019-03-31T23:37:43.940Z,3.65
2019-03-31T23:40:12.415Z,3.35
2019-03-31T23:42:40.490Z,10.48
2019-03-31T23:45:08.757Z,5.15
2019-03-31T23:47:39.091Z,7.15
2019-03-31T23:50:07.928Z,8.28
2019-03-31T23:52:36.153Z,5.12
2019-03-31T23:55:04.634Z,7.35
2019-03-31T23:57:41.108Z,6.50
